This is the latest recevied weather packets stored in our database for station/object EA5AER-5. If no packets are shown the sender has not sent any weather packets the latest 10 day(s).
| Time | Temp. | Humidity | Pressure | Rain* | Wind** | Luminosity | Snow |
|---|---|---|---|---|---|---|---|
| 1777658160 | 19.44° C | 81% | 1019.1 hPa | 0 mm | - | 202 W/m² | - |
| 1777656932 | 19.44° C | 81% | 1019.1 hPa | 0 mm | - | 202 W/m² | - |
| 1777655758 | 19.44° C | 81% | 1019.1 hPa | 0 mm | - | 202 W/m² | - |
| 1777654633 | 19.44° C | 81% | 1019.1 hPa | 0 mm | - | 202 W/m² | - |
| 1777653432 | 19.44° C | 81% | 1018.9 hPa | 0 mm | - | 174 W/m² | - |
| 1777652190 | 19.44° C | 82% | 1018.8 hPa | 0 mm | - | 204 W/m² | - |
| 1777650958 | 19.44° C | 82% | 1018.8 hPa | 0 mm | - | 204 W/m² | - |
| 1777649820 | 19.44° C | 80% | 1018.6 hPa | 0 mm | - | 283 W/m² | - |
| 1777647324 | 19.44° C | 80% | 1018.6 hPa | 0 mm | - | 283 W/m² | - |
| 1777646016 | 20° C | 79% | 1018.5 hPa | 0 mm | - | 325 W/m² | - |
| 1777644858 | 19.44° C | 81% | 1018.9 hPa | 0 mm | - | 353 W/m² | - |
| 1777643580 | 19.44° C | 81% | 1018.9 hPa | 0 mm | - | 353 W/m² | - |
| 1777642456 | 19.44° C | 81% | 1018.9 hPa | 0 mm | - | 353 W/m² | - |
| 1777641205 | 19.44° C | 83% | 1018.8 hPa | 0 mm | - | 541 W/m² | - |
| 1777639922 | 19.44° C | 83% | 1018.8 hPa | 0 mm | - | 541 W/m² | - |
| 1777638709 | 19.44° C | 83% | 1018.8 hPa | 0 mm | - | 541 W/m² | - |
| 1777637590 | 19.44° C | 83% | 1018.8 hPa | 0 mm | - | 541 W/m² | - |
| 1777636320 | 19.44° C | 83% | 1018.9 hPa | 0 mm | - | 390 W/m² | - |
| 1777635066 | 18.89° C | 85% | 1019.2 hPa | 0 mm | - | 151 W/m² | - |
| 1777633835 | 18.89° C | 85% | 1019.2 hPa | 0 mm | - | 151 W/m² | - |
| 1777632627 | 18.89° C | 85% | 1019.2 hPa | 0 mm | - | 151 W/m² | - |
| 1777631401 | 18.89° C | 85% | 1019.2 hPa | 0 mm | - | 151 W/m² | - |
| 1777630230 | 18.89° C | 85% | 1019.2 hPa | 0 mm | - | 151 W/m² | - |
| 1777629053 | 19.44° C | 83% | 1018.9 hPa | 0 mm | - | 183 W/m² | - |
| 1777627952 | 19.44° C | 83% | 1018.9 hPa | 0 mm | - | 183 W/m² | - |
* Rain latest hour (hover to see other rain measurements)
** Current wind speed in m/s (hover to see current wind gust speed)